| time (UTC) | temp F | wind direction | speed knots | gust knots | rain 1hr in | rain 24hr in | rain mn in | humidity % | barometer mb |
| 20260509132544 | 57 | 315 | 3.5 | 7.0 | 0.00 | 0.01 | 0.00 | 57 | 1015.3 |
| 20260509132043 | 57 | 315 | 3.5 | 7.0 | 0.00 | 0.01 | 0.00 | 58 | 1015.2 |
| 20260509131551 | 56 | 315 | 3.5 | 7.0 | 0.00 | 0.01 | 0.00 | 58 | 1015.2 |
| 20260509131043 | 54 | 313 | 4.3 | 7.0 | 0.00 | 0.01 | 0.00 | 62 | 1015.3 |
| 20260509130546 | 53 | 312 | 4.3 | 7.0 | 0.00 | 0.01 | 0.00 | 65 | 1015.3 |
| 20260509125545 | 54 | 313 | 2.6 | 5.2 | 0.00 | 0.01 | 0.00 | 68 | 1015.3 |
| 20260509125044 | 53 | 316 | 3.5 | 5.2 | 0.00 | 0.01 | 0.00 | 68 | 1015.2 |
| 20260509124552 | 51 | 311 | 3.5 | 4.3 | 0.00 | 0.01 | 0.00 | 72 | 1015.1 |
| 20260509124044 | 50 | 302 | 1.7 | 4.3 | 0.00 | 0.01 | 0.00 | 76 | 1015.1 |
| 20260509123544 | 50 | 298 | 2.6 | 4.3 | 0.00 | 0.01 | 0.00 | 78 | 1015.2 |
| 20260509123058 | 50 | 298 | 2.6 | 4.3 | 0.00 | 0.01 | 0.00 | 78 | 1015.2 |
| 20260509122543 | 51 | 309 | 2.6 | 3.5 | 0.00 | 0.01 | 0.00 | 76 | 1015.2 |
| 20260509122045 | 51 | 309 | 2.6 | 3.5 | 0.00 | 0.01 | 0.00 | 75 | 1015.2 |
| 20260509121554 | 52 | 309 | 2.6 | 4.3 | 0.00 | 0.01 | 0.00 | 73 | 1015.2 |
| 20260509121048 | 52 | 309 | 2.6 | 4.3 | 0.00 | 0.01 | 0.00 | 71 | 1015.2 |
| 20260509120544 | 53 | 308 | 2.6 | 4.3 | 0.00 | 0.01 | 0.00 | 70 | 1015.2 |
| 20260509120050 | 54 | 309 | 0.0 | 0.0 | 0.00 | 0.01 | 0.00 | 66 | 1015.3 |
| 20260509115543 | 55 | 0 | 0.0 | 0.0 | 0.00 | 0.01 | 0.00 | 64 | 1015.4 |
| 20260509115043 | 55 | 0 | 0.0 | 0.0 | 0.00 | 0.01 | 0.00 | 62 | 1015.4 |
| 20260509114550 | 56 | 0 | 0.0 | 0.0 | 0.00 | 0.01 | 0.00 | 61 | 1015.5 |
| 20260509114043 | 56 | 0 | 0.0 | 0.0 | 0.00 | 0.01 | 0.00 | 62 | 1015.4 |
| 20260509113543 | 56 | 0 | 0.0 | 0.0 | 0.00 | 0.01 | 0.00 | 62 | 1015.4 |
| 20260509113106 | 56 | 0 | 0.0 | 0.0 | 0.00 | 0.01 | 0.00 | 62 | 1015.4 |
| 20260509112545 | 56 | 0 | 0.0 | 0.0 | 0.00 | 0.01 | 0.00 | 61 | 1015.6 |
| 20260509112044 | 56 | 0 | 0.0 | 0.0 | 0.00 | 0.01 | 0.00 | 61 | 1015.5 |
| 20260509111548 | 55 | 0 | 0.0 | 2.6 | 0.00 | 0.01 | 0.00 | 62 | 1015.4 |
| 20260509111045 | 55 | 0 | 0.0 | 2.6 | 0.00 | 0.01 | 0.00 | 63 | 1015.4 |
| 20260509110547 | 54 | 23 | 1.7 | 2.6 | 0.00 | 0.01 | 0.00 | 64 | 1015.4 |
| 20260509110048 | 54 | 23 | 0.9 | 2.6 | 0.00 | 0.01 | 0.00 | 66 | 1015.4 |
| 20260509105543 | 53 | 0 | 0.0 | 1.7 | 0.00 | 0.01 | 0.00 | 68 | 1015.4 |
| 20260509105045 | 52 | 0 | 0.0 | 2.6 | 0.00 | 0.01 | 0.00 | 70 | 1015.4 |
| 20260509104556 | 51 | 314 | 0.9 | 5.2 | 0.00 | 0.01 | 0.00 | 70 | 1015.4 |
| 20260509104045 | 51 | 314 | 1.7 | 6.1 | 0.00 | 0.01 | 0.00 | 73 | 1015.6 |
| 20260509103543 | 51 | 304 | 3.5 | 6.1 | 0.00 | 0.01 | 0.00 | 74 | 1015.5 |
| 20260509103057 | 54 | 296 | 2.6 | 6.1 | 0.00 | 0.01 | 0.00 | 70 | 1015.6 |
| 20260509102544 | 56 | 321 | 2.6 | 3.5 | 0.00 | 0.01 | 0.00 | 63 | 1015.6 |
| 20260509102045 | 56 | 338 | 1.7 | 2.6 | 0.00 | 0.01 | 0.00 | 58 | 1015.6 |
| 20260509101549 | 56 | 340 | 0.0 | 1.7 | 0.00 | 0.01 | 0.00 | 59 | 1015.6 |
| 20260509101044 | 55 | 0 | 0.0 | 0.0 | 0.00 | 0.01 | 0.00 | 63 | 1015.7 |
| 20260509100544 | 55 | 0 | 0.0 | 0.0 | 0.00 | 0.01 | 0.00 | 64 | 1015.6 |
| 20260509100219 | 54 | 0 | 0.0 | 0.0 | 0.00 | 0.01 | 0.00 | 66 | 1015.6 |
| 20260509095544 | 53 | 0 | 0.0 | 0.0 | 0.00 | 0.01 | 0.00 | 67 | 1015.7 |
| 20260509095044 | 52 | 0 | 0.0 | 0.0 | 0.00 | 0.01 | 0.00 | 68 | 1015.7 |
| 20260509094554 | 52 | 0 | 0.0 | 1.7 | 0.00 | 0.01 | 0.00 | 70 | 1015.7 |
| 20260509094043 | 51 | 0 | 0.0 | 4.3 | 0.00 | 0.01 | 0.00 | 71 | 1015.8 |
| 20260509093543 | 51 | 0 | 0.0 | 4.3 | 0.00 | 0.01 | 0.00 | 71 | 1015.8 |
| 20260509093052 | 52 | 331 | 2.6 | 3.5 | 0.00 | 0.01 | 0.00 | 75 | 1015.9 |
| 20260509092547 | 53 | 316 | 1.7 | 3.5 | 0.00 | 0.01 | 0.00 | 71 | 1015.9 |
| 20260509092043 | 54 | 0 | 0.0 | 2.6 | 0.00 | 0.01 | 0.00 | 62 | 1015.9 |
| 20260509091603 | 53 | 0 | 0.0 | 4.3 | 0.00 | 0.01 | 0.00 | 62 | 1016.0 |
| 20260509091043 | 53 | 311 | 1.7 | 4.3 | 0.00 | 0.01 | 0.00 | 66 | 1016.0 |
| 20260509090543 | 53 | 311 | 2.6 | 4.3 | 0.00 | 0.01 | 0.00 | 67 | 1016.0 |
| 20260509090058 | 53 | 316 | 2.6 | 5.2 | 0.00 | 0.01 | 0.00 | 69 | 1016.0 |
| 20260509085543 | 54 | 316 | 1.7 | 7.0 | 0.00 | 0.01 | 0.00 | 67 | 1015.9 |
| 20260509085048 | 54 | 316 | 4.3 | 7.0 | 0.00 | 0.01 | 0.00 | 64 | 1015.9 |
| 20260509084550 | 55 | 316 | 3.5 | 7.0 | 0.00 | 0.01 | 0.00 | 64 | 1015.9 |
| 20260509084043 | 55 | 310 | 2.6 | 7.8 | 0.00 | 0.01 | 0.00 | 64 | 1016.0 |
| 20260509083543 | 55 | 316 | 3.5 | 7.8 | 0.00 | 0.01 | 0.00 | 65 | 1016.0 |
| 20260509083050 | 54 | 314 | 3.5 | 7.8 | 0.00 | 0.01 | 0.00 | 65 | 1016.1 |
| 20260509082544 | 54 | 331 | 3.5 | 7.0 | 0.00 | 0.01 | 0.00 | 66 | 1016.1 |
| 20260509082044 | 53 | 313 | 3.5 | 5.2 | 0.00 | 0.01 | 0.00 | 69 | 1016.1 |
| 20260509081559 | 51 | 315 | 3.5 | 5.2 | 0.00 | 0.01 | 0.00 | 74 | 1016.1 |
| 20260509081044 | 50 | 321 | 3.5 | 5.2 | 0.00 | 0.01 | 0.00 | 80 | 1016.2 |
| 20260509080543 | 49 | 320 | 3.5 | 7.0 | 0.00 | 0.01 | 0.00 | 81 | 1016.2 |
| 20260509080050 | 48 | 319 | 2.6 | 8.7 | 0.00 | 0.01 | 0.00 | 85 | 1016.2 |
| 20260509075543 | 48 | 319 | 4.3 | 8.7 | 0.00 | 0.01 | 0.00 | 85 | 1016.3 |
| 20260509075044 | 49 | 313 | 4.3 | 8.7 | 0.00 | 0.01 | 0.00 | 83 | 1016.3 |
| 20260509074549 | 50 | 317 | 3.5 | 7.0 | 0.00 | 0.01 | 0.00 | 80 | 1016.3 |
| 20260509074044 | 51 | 319 | 3.5 | 7.0 | 0.00 | 0.01 | 0.00 | 77 | 1016.3 |
| 20260509073544 | 52 | 312 | 2.6 | 7.0 | 0.00 | 0.01 | 0.00 | 75 | 1016.4 |
| 20260509073049 | 51 | 317 | 3.5 | 7.8 | 0.00 | 0.01 | 0.00 | 76 | 1016.4 |
| 20260509072543 | 50 | 312 | 3.5 | 7.8 | 0.00 | 0.01 | 0.00 | 81 | 1016.4 |
| 20260509072044 | 48 | 308 | 4.3 | 7.0 | 0.00 | 0.01 | 0.00 | 84 | 1016.4 |
| 20260509071552 | 48 | 321 | 3.5 | 7.0 | 0.00 | 0.01 | 0.00 | 86 | 1016.4 |
| 20260509071041 | 49 | 309 | 3.5 | 7.0 | 0.00 | 0.01 | 0.00 | 85 | 1016.5 |
| 20260509070544 | 49 | 313 | 3.5 | 7.8 | 0.00 | 0.01 | 0.00 | 84 | 1016.5 |
| 20260509070051 | 48 | 316 | 5.2 | 8.7 | 0.00 | 0.01 | 0.00 | 86 | 1016.5 |
| 20260509065543 | 48 | 319 | 5.2 | 9.6 | 0.00 | 0.01 | 0.01 | 86 | 1016.6 |
| 20260509065043 | 49 | 307 | 6.1 | 9.6 | 0.00 | 0.01 | 0.01 | 83 | 1016.6 |
| 20260509064550 | 50 | 306 | 7.0 | 9.6 | 0.00 | 0.01 | 0.01 | 79 | 1016.6 |
| 20260509064043 | 50 | 303 | 5.2 | 8.7 | 0.00 | 0.01 | 0.01 | 78 | 1016.7 |
| 20260509063544 | 50 | 311 | 3.5 | 7.0 | 0.00 | 0.01 | 0.01 | 81 | 1016.7 |
| 20260509063056 | 49 | 317 | 4.3 | 7.8 | 0.00 | 0.01 | 0.01 | 82 | 1016.6 |
| 20260509062545 | 50 | 314 | 5.2 | 8.7 | 0.00 | 0.01 | 0.01 | 82 | 1016.7 |
| 20260509062044 | 50 | 309 | 5.2 | 8.7 | 0.00 | 0.01 | 0.01 | 80 | 1016.8 |
| 20260509061606 | 52 | 306 | 5.2 | 8.7 | 0.00 | 0.01 | 0.01 | 78 | 1016.7 |
| 20260509061043 | 53 | 306 | 3.5 | 7.0 | 0.00 | 0.01 | 0.01 | 74 | 1016.8 |
| 20260509060541 | 54 | 315 | 4.3 | 7.0 | 0.00 | 0.01 | 0.01 | 70 | 1016.8 |
| 20260509060053 | 53 | 312 | 4.3 | 7.8 | 0.00 | 0.01 | 0.01 | 72 | 1016.8 |
| 20260509055546 | 51 | 314 | 4.3 | 7.8 | 0.00 | 0.01 | 0.01 | 81 | 1016.8 |
| 20260509055043 | 49 | 323 | 4.3 | 7.8 | 0.00 | 0.01 | 0.01 | 90 | 1016.9 |
| 20260509054558 | 48 | 313 | 3.5 | 6.1 | 0.00 | 0.01 | 0.01 | 95 | 1017.0 |
| 20260509054043 | 47 | 315 | 4.3 | 6.1 | 0.00 | 0.01 | 0.01 | 95 | 1017.0 |
| 20260509053544 | 46 | 320 | 3.5 | 5.2 | 0.00 | 0.01 | 0.01 | 95 | 1017.0 |
| 20260509053058 | 46 | 312 | 1.7 | 6.1 | 0.00 | 0.01 | 0.01 | 95 | 1017.0 |
| 20260509052543 | 46 | 315 | 2.6 | 7.0 | 0.00 | 0.01 | 0.01 | 95 | 1017.1 |
| 20260509052046 | 46 | 296 | 3.5 | 7.0 | 0.00 | 0.01 | 0.01 | 95 | 1017.1 |
| 20260509051553 | 46 | 296 | 3.5 | 7.0 | 0.00 | 0.01 | 0.01 | 95 | 1017.1 |
| 20260509051049 | 46 | 300 | 3.5 | 7.0 | 0.00 | 0.01 | 0.01 | 95 | 1017.1 |
| 20260509050544 | 46 | 297 | 3.5 | 6.1 | 0.00 | 0.01 | 0.01 | 95 | 1017.1 |
| 20260509050052 | 47 | 302 | 2.6 | 7.0 | 0.00 | 0.01 | 0.01 | 95 | 1017.0 |
| 20260509045544 | 47 | 304 | 3.5 | 7.0 | 0.00 | 0.01 | 0.01 | 95 | 1017.0 |
| 20260509045044 | 47 | 308 | 4.3 | 7.0 | 0.00 | 0.01 | 0.01 | 95 | 1016.9 |
| 20260509044556 | 47 | 309 | 4.3 | 7.0 | 0.00 | 0.01 | 0.01 | 95 | 1016.9 |
| 20260509044045 | 47 | 321 | 4.3 | 7.0 | 0.00 | 0.01 | 0.01 | 95 | 1016.9 |
| 20260509043547 | 47 | 306 | 3.5 | 7.0 | 0.00 | 0.01 | 0.01 | 95 | 1017.0 |
| 20260509043059 | 47 | 306 | 3.5 | 7.0 | 0.00 | 0.01 | 0.01 | 95 | 1016.9 |
| 20260509042543 | 47 | 304 | 4.3 | 7.8 | 0.00 | 0.01 | 0.01 | 95 | 1016.8 |
| 20260509042046 | 47 | 305 | 4.3 | 7.8 | 0.00 | 0.01 | 0.01 | 95 | 1016.8 |
| 20260509041551 | 47 | 302 | 4.3 | 7.8 | 0.00 | 0.01 | 0.01 | 94 | 1016.8 |
| 20260509041044 | 48 | 314 | 3.5 | 7.0 | 0.00 | 0.01 | 0.01 | 94 | 1016.8 |
| 20260509040543 | 48 | 309 | 3.5 | 7.0 | 0.00 | 0.01 | 0.01 | 95 | 1016.8 |
| 20260509040051 | 48 | 304 | 4.3 | 7.0 | 0.00 | 0.01 | 0.01 | 94 | 1016.8 |
| 20260509035543 | 48 | 302 | 3.5 | 7.0 | 0.00 | 0.01 | 0.01 | 94 | 1016.8 |
| 20260509035042 | 48 | 312 | 3.5 | 7.0 | 0.00 | 0.01 | 0.01 | 94 | 1016.7 |
| 20260509034602 | 48 | 313 | 3.5 | 7.0 | 0.00 | 0.01 | 0.01 | 94 | 1016.6 |
| 20260509034044 | 48 | 296 | 3.5 | 7.0 | 0.00 | 0.01 | 0.01 | 94 | 1016.6 |
| 20260509033545 | 48 | 306 | 3.5 | 7.0 | 0.00 | 0.01 | 0.01 | 94 | 1016.7 |
| 20260509033055 | 48 | 309 | 3.5 | 6.1 | 0.00 | 0.01 | 0.01 | 94 | 1016.6 |
| 20260509032543 | 49 | 323 | 3.5 | 7.0 | 0.00 | 0.01 | 0.01 | 93 | 1016.7 |
| 20260509032047 | 49 | 294 | 3.5 | 7.0 | 0.00 | 0.01 | 0.01 | 93 | 1016.6 |
| 20260509031553 | 49 | 304 | 2.6 | 6.1 | 0.00 | 0.01 | 0.01 | 93 | 1016.7 |
| 20260509031043 | 49 | 304 | 2.6 | 7.0 | 0.00 | 0.01 | 0.01 | 93 | 1016.6 |
| 20260509030543 | 49 | 309 | 2.6 | 7.0 | 0.00 | 0.01 | 0.01 | 92 | 1016.6 |
| 20260509030053 | 50 | 315 | 3.5 | 7.0 | 0.00 | 0.01 | 0.01 | 92 | 1016.6 |
| 20260509025543 | 50 | 311 | 3.5 | 6.1 | 0.00 | 0.01 | 0.01 | 91 | 1016.6 |
| 20260509025045 | 51 | 301 | 2.6 | 5.2 | 0.00 | 0.01 | 0.01 | 90 | 1016.6 |
| 20260509024553 | 51 | 306 | 2.6 | 6.1 | 0.00 | 0.01 | 0.01 | 90 | 1016.6 |
| 20260509024044 | 52 | 313 | 3.5 | 6.1 | 0.00 | 0.01 | 0.01 | 90 | 1016.6 |
| 20260509023543 | 52 | 304 | 2.6 | 6.1 | 0.00 | 0.01 | 0.01 | 89 | 1016.5 |
| 20260509023055 | 53 | 311 | 2.6 | 6.1 | 0.00 | 0.01 | 0.01 | 89 | 1016.6 |
| 20260509022545 | 53 | 300 | 2.6 | 4.3 | 0.00 | 0.01 | 0.01 | 89 | 1016.6 |
| 20260509022045 | 53 | 316 | 2.6 | 5.2 | 0.00 | 0.01 | 0.01 | 88 | 1016.6 |
| 20260509021554 | 53 | 312 | 2.6 | 6.1 | 0.00 | 0.01 | 0.01 | 88 | 1016.5 |
| 20260509021133 | 54 | 307 | 2.6 | 6.1 | 0.00 | 0.01 | 0.01 | 87 | 1016.6 |
| 20260509020544 | 54 | 310 | 2.6 | 6.1 | 0.00 | 0.01 | 0.01 | 86 | 1016.6 |
| 20260509020054 | 54 | 304 | 2.6 | 6.1 | 0.00 | 0.01 | 0.01 | 86 | 1016.6 |
| 20260509015543 | 55 | 315 | 2.6 | 6.1 | 0.00 | 0.01 | 0.01 | 86 | 1016.7 |
| 20260509015043 | 55 | 304 | 2.6 | 7.0 | 0.00 | 0.01 | 0.01 | 85 | 1016.6 |
| 20260509014553 | 56 | 300 | 3.5 | 7.0 | 0.00 | 0.01 | 0.01 | 84 | 1016.7 |
| 20260509014043 | 56 | 303 | 3.5 | 7.8 | 0.00 | 0.01 | 0.01 | 83 | 1016.7 |
| 20260509013548 | 57 | 304 | 4.3 | 7.8 | 0.00 | 0.01 | 0.01 | 83 | 1016.6 |
| 20260509013052 | 57 | 302 | 4.3 | 7.0 | 0.00 | 0.01 | 0.01 | 82 | 1016.6 |
| 20260509012545 | 57 | 300 | 3.5 | 6.1 | 0.00 | 0.01 | 0.01 | 82 | 1016.7 |
| 20260509012046 | 58 | 307 | 2.6 | 7.8 | 0.00 | 0.01 | 0.01 | 82 | 1016.7 |
| 20260509011553 | 58 | 298 | 4.3 | 7.8 | 0.00 | 0.01 | 0.01 | 82 | 1016.7 |
| 20260509011044 | 58 | 300 | 4.3 | 8.7 | 0.00 | 0.01 | 0.01 | 82 | 1016.8 |
| 20260509010543 | 58 | 306 | 4.3 | 8.7 | 0.00 | 0.01 | 0.01 | 82 | 1016.8 |
| 20260509010051 | 58 | 296 | 5.2 | 8.7 | 0.00 | 0.01 | 0.01 | 82 | 1016.8 |
| 20260509005543 | 58 | 300 | 4.3 | 8.7 | 0.00 | 0.01 | 0.01 | 82 | 1016.8 |
| 20260509005044 | 58 | 303 | 5.2 | 7.8 | 0.00 | 0.01 | 0.01 | 82 | 1016.7 |
| 20260509004549 | 58 | 306 | 3.5 | 7.8 | 0.00 | 0.01 | 0.01 | 82 | 1016.8 |
| 20260509004044 | 58 | 297 | 4.3 | 8.7 | 0.00 | 0.01 | 0.01 | 82 | 1016.9 |
| 20260509003544 | 58 | 304 | 3.5 | 8.7 | 0.00 | 0.01 | 0.01 | 82 | 1017.0 |
| 20260509003048 | 58 | 296 | 5.2 | 8.7 | 0.00 | 0.01 | 0.01 | 82 | 1016.9 |
| 20260509002543 | 58 | 302 | 6.1 | 9.6 | 0.00 | 0.01 | 0.01 | 82 | 1017.0 |
| 20260509002043 | 58 | 308 | 5.2 | 9.6 | 0.00 | 0.01 | 0.01 | 81 | 1017.0 |
| 20260509001549 | 58 | 298 | 5.2 | 9.6 | 0.00 | 0.01 | 0.01 | 80 | 1017.1 |
| 20260509001044 | 59 | 294 | 6.1 | 8.7 | 0.00 | 0.01 | 0.01 | 80 | 1017.0 |
| 20260509000543 | 59 | 302 | 4.3 | 9.6 | 0.00 | 0.01 | 0.01 | 79 | 1017.1 |
| 20260509000052 | 60 | 308 | 5.2 | 9.6 | 0.00 | 0.01 | 0.01 | 78 | 1017.0 |
| 20260508235543 | 60 | 313 | 7.0 | 9.6 | 0.00 | 0.01 | 0.01 | 78 | 1017.0 |
| 20260508235044 | 60 | 298 | 7.0 | 9.6 | 0.00 | 0.01 | 0.01 | 78 | 1017.1 |
| 20260508234556 | 61 | 315 | 7.0 | 9.6 | 0.00 | 0.01 | 0.01 | 77 | 1017.1 |
| 20260508234045 | 61 | 311 | 7.0 | 9.6 | 0.00 | 0.01 | 0.01 | 77 | 1017.2 |
| 20260508233543 | 61 | 304 | 6.1 | 8.7 | 0.00 | 0.01 | 0.01 | 77 | 1017.2 |
| 20260508233054 | 62 | 296 | 5.2 | 7.8 | 0.00 | 0.01 | 0.01 | 76 | 1017.2 |
| 20260508232546 | 62 | 300 | 5.2 | 8.7 | 0.00 | 0.01 | 0.01 | 76 | 1017.3 |
| 20260508232043 | 62 | 309 | 5.2 | 8.7 | 0.00 | 0.01 | 0.01 | 76 | 1017.3 |
| 20260508231635 | 62 | 306 | 6.1 | 8.7 | 0.00 | 0.01 | 0.01 | 76 | 1017.3 |
| 20260508231044 | 62 | 322 | 5.2 | 7.8 | 0.00 | 0.01 | 0.01 | 76 | 1017.3 |
| 20260508230544 | 62 | 323 | 5.2 | 7.8 | 0.00 | 0.01 | 0.01 | 77 | 1017.4 |
| 20260508230059 | 62 | 306 | 5.2 | 9.6 | 0.00 | 0.01 | 0.01 | 77 | 1017.4 |
| 20260508225543 | 61 | 300 | 5.2 | 9.6 | 0.00 | 0.01 | 0.01 | 77 | 1017.5 |
| 20260508225045 | 61 | 296 | 5.2 | 9.6 | 0.00 | 0.01 | 0.01 | 77 | 1017.5 |
| 20260508224550 | 61 | 307 | 5.2 | 9.6 | 0.00 | 0.01 | 0.01 | 77 | 1017.6 |
| 20260508224043 | 62 | 305 | 6.1 | 10.4 | 0.00 | 0.01 | 0.01 | 76 | 1017.6 |
| 20260508223544 | 62 | 298 | 7.0 | 10.4 | 0.00 | 0.01 | 0.01 | 76 | 1017.7 |
| 20260508223049 | 62 | 307 | 5.2 | 8.7 | 0.00 | 0.01 | 0.01 | 76 | 1017.7 |
| 20260508222544 | 62 | 304 | 5.2 | 8.7 | 0.00 | 0.01 | 0.01 | 78 | 1017.8 |
| 20260508222044 | 62 | 292 | 6.1 | 8.7 | 0.00 | 0.01 | 0.01 | 77 | 1017.9 |
| 20260508221550 | 62 | 284 | 5.2 | 7.8 | 0.00 | 0.01 | 0.01 | 77 | 1018.0 |
| 20260508221044 | 62 | 303 | 4.3 | 7.8 | 0.00 | 0.01 | 0.01 | 77 | 1018.0 |
| 20260508220544 | 62 | 291 | 3.5 | 7.0 | 0.00 | 0.01 | 0.01 | 77 | 1018.0 |
| 20260508220048 | 62 | 296 | 4.3 | 7.0 | 0.00 | 0.01 | 0.01 | 78 | 1018.1 |
| 20260508215543 | 61 | 290 | 3.5 | 7.8 | 0.00 | 0.01 | 0.01 | 78 | 1018.1 |
| 20260508215045 | 61 | 298 | 4.3 | 7.8 | 0.00 | 0.01 | 0.01 | 78 | 1018.2 |
| 20260508214618 | 61 | 306 | 4.3 | 7.8 | 0.00 | 0.01 | 0.01 | 79 | 1018.2 |
| 20260508214047 | 61 | 306 | 4.3 | 7.8 | 0.00 | 0.01 | 0.01 | 80 | 1018.3 |
| 20260508213543 | 61 | 296 | 4.3 | 7.0 | 0.00 | 0.01 | 0.01 | 79 | 1018.4 |
| 20260508213053 | 61 | 305 | 3.5 | 7.8 | 0.00 | 0.01 | 0.01 | 79 | 1018.3 |
| 20260508212543 | 60 | 294 | 3.5 | 7.8 | 0.00 | 0.01 | 0.01 | 80 | 1018.4 |
| 20260508212046 | 60 | 312 | 4.3 | 8.7 | 0.00 | 0.01 | 0.01 | 80 | 1018.5 |
| 20260508211550 | 60 | 296 | 4.3 | 8.7 | 0.00 | 0.01 | 0.01 | 79 | 1018.5 |
| 20260508211044 | 60 | 313 | 6.1 | 8.7 | 0.00 | 0.01 | 0.01 | 80 | 1018.5 |
| 20260508210544 | 60 | 319 | 4.3 | 7.8 | 0.00 | 0.01 | 0.01 | 80 | 1018.6 |
| 20260508210054 | 61 | 306 | 4.3 | 7.8 | 0.00 | 0.01 | 0.01 | 80 | 1018.6 |
| 20260508205543 | 61 | 303 | 4.3 | 7.8 | 0.00 | 0.01 | 0.01 | 81 | 1018.5 |
| 20260508205044 | 60 | 295 | 3.5 | 7.0 | 0.00 | 0.01 | 0.01 | 81 | 1018.7 |
| 20260508204549 | 60 | 299 | 3.5 | 7.0 | 0.00 | 0.01 | 0.01 | 81 | 1018.7 |
| 20260508204043 | 60 | 331 | 2.6 | 7.0 | 0.00 | 0.01 | 0.01 | 82 | 1018.8 |
| 20260508203544 | 60 | 300 | 3.5 | 7.0 | 0.00 | 0.01 | 0.01 | 83 | 1018.7 |
| 20260508203106 | 59 | 313 | 3.5 | 7.0 | 0.00 | 0.01 | 0.01 | 83 | 1018.7 |
| 20260508202544 | 59 | 300 | 3.5 | 7.0 | 0.00 | 0.01 | 0.01 | 84 | 1018.7 |
| 20260508202043 | 58 | 312 | 3.5 | 6.1 | 0.00 | 0.01 | 0.01 | 85 | 1018.8 |
| 20260508201549 | 58 | 331 | 2.6 | 7.8 | 0.00 | 0.01 | 0.01 | 85 | 1018.7 |
| 20260508201043 | 57 | 304 | 3.5 | 7.8 | 0.00 | 0.01 | 0.01 | 85 | 1018.7 |
| 20260508200543 | 57 | 306 | 4.3 | 7.8 | 0.00 | 0.01 | 0.01 | 85 | 1018.8 |
| 20260508200049 | 57 | 300 | 4.3 | 8.7 | 0.00 | 0.01 | 0.01 | 85 | 1018.8 |
| 20260508195543 | 57 | 300 | 5.2 | 8.7 | 0.00 | 0.01 | 0.01 | 86 | 1018.8 |
| 20260508195044 | 57 | 296 | 5.2 | 8.7 | 0.00 | 0.01 | 0.01 | 85 | 1018.9 |
| 20260508194554 | 56 | 296 | 5.2 | 8.7 | 0.00 | 0.01 | 0.01 | 85 | 1018.8 |
| 20260508194043 | 56 | 308 | 4.3 | 7.8 | 0.00 | 0.01 | 0.01 | 86 | 1018.8 |
| 20260508193543 | 56 | 307 | 4.3 | 7.8 | 0.00 | 0.01 | 0.01 | 87 | 1018.9 |
| 20260508193110 | 56 | 299 | 4.3 | 7.8 | 0.00 | 0.01 | 0.01 | 87 | 1018.9 |
| 20260508192544 | 56 | 305 | 3.5 | 6.1 | 0.00 | 0.01 | 0.01 | 88 | 1018.8 |
| 20260508192044 | 55 | 301 | 2.6 | 7.0 | 0.00 | 0.01 | 0.01 | 89 | 1018.9 |
| 20260508191549 | 55 | 306 | 3.5 | 7.8 | 0.00 | 0.01 | 0.01 | 89 | 1018.8 |
| 20260508191043 | 55 | 306 | 3.5 | 7.8 | 0.00 | 0.01 | 0.01 | 89 | 1018.9 |
| 20260508190545 | 55 | 298 | 3.5 | 7.8 | 0.00 | 0.01 | 0.01 | 90 | 1019.1 |
| 20260508190047 | 54 | 310 | 4.3 | 8.7 | 0.00 | 0.01 | 0.01 | 90 | 1019.0 |
| 20260508185544 | 54 | 298 | 4.3 | 8.7 | 0.00 | 0.01 | 0.01 | 91 | 1019.1 |
| 20260508185044 | 54 | 300 | 5.2 | 8.7 | 0.00 | 0.01 | 0.01 | 92 | 1019.2 |
| 20260508184546 | 54 | 325 | 5.2 | 8.7 | 0.00 | 0.01 | 0.01 | 93 | 1019.2 |
| 20260508184045 | 54 | 308 | 6.1 | 8.7 | 0.00 | 0.01 | 0.01 | 94 | 1019.1 |
| 20260508183544 | 53 | 318 | 5.2 | 8.7 | 0.00 | 0.01 | 0.01 | 95 | 1019.2 |
| 20260508183059 | 53 | 313 | 4.3 | 7.8 | 0.00 | 0.01 | 0.01 | 95 | 1019.2 |
| 20260508182544 | 53 | 309 | 4.3 | 8.7 | 0.00 | 0.01 | 0.01 | 96 | 1019.1 |
| 20260508182044 | 53 | 321 | 4.3 | 8.7 | 0.00 | 0.01 | 0.01 | 96 | 1019.2 |
| 20260508181553 | 52 | 311 | 5.2 | 8.7 | 0.00 | 0.01 | 0.01 | 96 | 1019.2 |
| 20260508181044 | 52 | 305 | 5.2 | 7.8 | 0.00 | 0.01 | 0.01 | 96 | 1019.3 |
| 20260508180545 | 52 | 299 | 4.3 | 7.8 | 0.00 | 0.01 | 0.01 | 97 | 1019.2 |
| 20260508180058 | 51 | 308 | 4.3 | 7.0 | 0.00 | 0.01 | 0.01 | 96 | 1019.3 |
| 20260508175544 | 51 | 310 | 3.5 | 7.8 | 0.00 | 0.01 | 0.01 | 97 | 1019.3 |
| 20260508175045 | 51 | 302 | 3.5 | 7.8 | 0.00 | 0.01 | 0.01 | 97 | 1019.3 |
| 20260508174602 | 51 | 308 | 4.3 | 7.8 | 0.00 | 0.01 | 0.01 | 96 | 1019.2 |
| 20260508174044 | 51 | 300 | 3.5 | 7.0 | 0.00 | 0.01 | 0.01 | 96 | 1019.2 |
| 20260508173546 | 51 | 308 | 3.5 | 7.8 | 0.00 | 0.01 | 0.01 | 97 | 1019.2 |
| 20260508173048 | 50 | 304 | 3.5 | 7.8 | 0.00 | 0.01 | 0.01 | 97 | 1019.2 |
| 20260508172544 | 50 | 310 | 3.5 | 7.8 | 0.00 | 0.01 | 0.01 | 96 | 1019.3 |
| 20260508172044 | 50 | 311 | 3.5 | 7.8 | 0.00 | 0.01 | 0.01 | 96 | 1019.2 |
| 20260508171547 | 50 | 309 | 3.5 | 7.0 | 0.00 | 0.01 | 0.01 | 96 | 1019.3 |
| 20260508171051 | 50 | 322 | 2.6 | 6.1 | 0.00 | 0.01 | 0.01 | 97 | 1019.3 |
| 20260508170544 | 50 | 306 | 2.6 | 6.1 | 0.00 | 0.01 | 0.01 | 97 | 1019.3 |
| 20260508170048 | 50 | 313 | 2.6 | 4.3 | 0.00 | 0.01 | 0.01 | 96 | 1019.2 |
| 20260508165546 | 49 | 304 | 0.9 | 4.3 | 0.00 | 0.01 | 0.01 | 96 | 1019.1 |
| 20260508165044 | 49 | 304 | 1.7 | 4.3 | 0.00 | 0.01 | 0.01 | 97 | 1018.9 |
| 20260508164603 | 49 | 302 | 1.7 | 4.3 | 0.00 | 0.01 | 0.01 | 96 | 1019.0 |
| 20260508164044 | 49 | 316 | 1.7 | 4.3 | 0.00 | 0.01 | 0.01 | 96 | 1019.1 |
| 20260508163547 | 48 | 315 | 1.7 | 3.5 | 0.00 | 0.01 | 0.01 | 96 | 1019.0 |
| 20260508163053 | 48 | 329 | 1.7 | 3.5 | 0.00 | 0.01 | 0.01 | 96 | 1019.0 |
| 20260508162544 | 48 | 331 | 1.7 | 3.5 | 0.00 | 0.01 | 0.01 | 96 | 1018.8 |
| 20260508162045 | 47 | 333 | 1.7 | 4.3 | 0.00 | 0.01 | 0.01 | 96 | 1018.9 |
| 20260508161553 | 47 | 313 | 1.7 | 5.2 | 0.00 | 0.01 | 0.01 | 96 | 1018.9 |
| 20260508161044 | 47 | 321 | 2.6 | 6.1 | 0.00 | 0.01 | 0.01 | 96 | 1018.9 |
| 20260508160547 | 47 | 309 | 2.6 | 6.1 | 0.00 | 0.01 | 0.01 | 96 | 1018.9 |
| 20260508160051 | 46 | 313 | 3.5 | 6.1 | 0.00 | 0.01 | 0.01 | 96 | 1018.9 |
| 20260508155549 | 46 | 311 | 2.6 | 6.1 | 0.00 | 0.01 | 0.01 | 96 | 1018.7 |
| 20260508155045 | 46 | 311 | 3.5 | 6.1 | 0.00 | 0.01 | 0.01 | 96 | 1018.6 |
| 20260508154553 | 46 | 317 | 2.6 | 4.3 | 0.00 | 0.01 | 0.01 | 96 | 1018.7 |
| 20260508154044 | 46 | 314 | 2.6 | 7.8 | 0.00 | 0.01 | 0.01 | 96 | 1018.7 |
| 20260508153545 | 45 | 294 | 3.5 | 7.8 | 0.00 | 0.01 | 0.01 | 96 | 1018.7 |
| 20260508153050 | 45 | 304 | 4.3 | 7.8 | 0.00 | 0.01 | 0.01 | 96 | 1018.7 |
| 20260508152545 | 45 | 311 | 3.5 | 6.1 | 0.00 | 0.01 | 0.01 | 96 | 1018.6 |
| 20260508152044 | 45 | 312 | 3.5 | 7.0 | 0.00 | 0.01 | 0.01 | 96 | 1018.6 |
| 20260508151554 | 45 | 312 | 3.5 | 8.7 | 0.00 | 0.01 | 0.01 | 96 | 1018.6 |
| 20260508151043 | 45 | 313 | 5.2 | 8.7 | 0.01 | 0.01 | 0.01 | 96 | 1018.6 |
| 20260508150544 | 45 | 306 | 5.2 | 8.7 | 0.01 | 0.01 | 0.01 | 96 | 1018.6 |
| 20260508150056 | 44 | 321 | 5.2 | 7.8 | 0.01 | 0.01 | 0.01 | 96 | 1018.5 |
| 20260508145543 | 45 | 309 | 5.2 | 9.6 | 0.01 | 0.01 | 0.01 | 96 | 1018.6 |
| 20260508145045 | 44 | 306 | 5.2 | 11.3 | 0.01 | 0.01 | 0.01 | 96 | 1018.6 |
| 20260508144555 | 44 | 321 | 7.8 | 11.3 | 0.01 | 0.01 | 0.01 | 96 | 1018.7 |
| 20260508144043 | 44 | 307 | 8.7 | 11.3 | 0.01 | 0.01 | 0.01 | 96 | 1018.5 |
| 20260508143542 | 44 | 315 | 7.8 | 11.3 | 0.01 | 0.01 | 0.01 | 96 | 1018.7 |
| 20260508143107 | 44 | 301 | 7.0 | 11.3 | 0.01 | 0.01 | 0.01 | 96 | 1018.7 |
| 20260508142544 | 44 | 309 | 7.8 | 11.3 | 0.01 | 0.01 | 0.01 | 96 | 1018.6 |
| 20260508142044 | 44 | 302 | 7.8 | 12.2 | 0.01 | 0.01 | 0.01 | 96 | 1018.4 |
| 20260508141555 | 44 | 299 | 8.7 | 12.2 | 0.01 | 0.01 | 0.01 | 96 | 1018.3 |
| 20260508141043 | 44 | 298 | 7.8 | 11.3 | 0.00 | 0.00 | 0.00 | 96 | 1018.2 |
| 20260508140543 | 44 | 298 | 7.0 | 10.4 | 0.00 | 0.00 | 0.00 | 96 | 1018.2 |
| 20260508140103 | 44 | 316 | 7.0 | 10.4 | 0.00 | 0.00 | 0.00 | 96 | 1018.1 |
| 20260508135544 | 44 | 300 | 6.1 | 8.7 | 0.00 | 0.00 | 0.00 | 96 | 1018.2 |
| 20260508135043 | 44 | 299 | 4.3 | 9.6 | 0.00 | 0.00 | 0.00 | 96 | 1018.1 |
| 20260508134555 | 44 | 300 | 6.1 | 12.2 | 0.00 | 0.00 | 0.00 | 96 | 1018.0 |
| 20260508134044 | 44 | 296 | 7.8 | 12.2 | 0.00 | 0.00 | 0.00 | 96 | 1018.0 |
| 20260508133543 | 44 | 315 | 7.0 | 12.2 | 0.00 | 0.00 | 0.00 | 96 | 1018.0 |
| 20260508133051 | 44 | 312 | 7.8 | 11.3 | 0.00 | 0.00 | 0.00 | 96 | 1017.9 |